Clintondale, NY (12515)

10:15 PM EST on December 09, 2016 (GMT -0500)
Highgait Farm | | Change Station

Elev 715 ft 41.67 °N, 74.06 °W | Updated 24 seconds ago

Partly Cloudy
Partly Cloudy
23.3 °F
Feels Like 18 °F
N
4.0
Wind Variable Wind from SW

Today
High -- | Low -- °F
--% Chance of Precip.
Yesterday
High -- | Low -- °F
Precip. -- in
Pressure 30.25 in
Visibility 10.0 miles
Clouds Mostly Cloudy 5000 ft
Windchill 18 °F
Dew Point 13 °F
Humidity 65%
Rainfall 0.00 in
Snow Depth Not available.
7:11 AM 4:25 PM
Waxing Gibbous, 79% visible
METAR KPOU 100253Z AUTO 24004KT 10SM BKN050 M04/M11 A3025 RMK AO2 SLP244 T10391111 51011
Pressure 30.25 in
Visibility 10.0 miles
Clouds Mostly Cloudy 5000 ft
Windchill 18 °F
Dew Point 13 °F
Humidity 65%
Rainfall 0.00 in
Snow Depth Not available.
7:11 AM 4:25 PM
Waxing Gibbous, 79% visible
METAR KPOU 100253Z AUTO 24004KT 10SM BKN050 M04/M11 A3025 RMK AO2 SLP244 T10391111 51011

10-Day Weather Forecast

Almanac

Astronomy

Dec. 09, 2016 Rise Set
Actual Time
Civil Twilight
Nautical Twilight
Astronomical Twilight
Moon
Length of Visible Light
Length of Day
Tomorrow will be .
, % of the Moon is Illuminated

Today's Extremes

State Highs State Lows

Community

WunderPhotos

Upload Photos

1,956,532 photos uploaded!

WunderBlog® & News

Nearby

Air Quality

  Air Quality AQ Index Pollutant
Not available.

Snow Depth

Station Depth Elevation

Earthquake Activity

City Distance Mag. Time & Date
Minimum magnitude displayed is 2.5.

Coastal Water Temperatures

Place Temperature

Stations

Nearby Weather Stations

Station Location Temp. Windchill Dew Point Humidity Wind Precip. Elev Updated Type
                   

Watches & Warnings

There are currently no watches in effect.